Time;durP1;ratioP1;P1;durP2;ratioP2;P2;SDS_P1;SDS_P2;PMS_P1;PMS_P2;Temp;Humidity;BMP_temperature;BMP_pressure;BME280_temperature;BME280_humidity;BME280_pressure;Samples;Min_cycle;Max_cycle;Signal;HPM_P1;HPM_P2
2024/04/09 00:00:10;;;;;;;9.18;4.10;;;15.90;99.90;;;16.43;100.00;100090.47;5207960;27;20011;-70
2024/04/09 00:02:38;;;;;;;7.78;3.92;;;16.00;99.90;;;16.39;100.00;100087.06;5206109;27;20007;-70
2024/04/09 00:05:09;;;;;;;8.65;3.70;;;16.10;99.90;;;16.58;100.00;100092.53;5207921;27;20007;-70
2024/04/09 00:07:38;;;;;;;;;;;16.20;99.90;;;16.58;100.00;100101.41;5208452;27;20353;-70
2024/04/09 00:10:13;;;;;;;10.02;3.75;;;16.20;99.90;;;16.52;100.00;100109.66;5207804;27;19928;-70
2024/04/09 00:12:43;;;;;;;7.70;4.22;;;16.20;99.90;;;16.56;100.00;100113.97;5207789;27;20007;-70
2024/04/09 00:15:13;;;;;;;10.88;3.85;;;16.10;99.90;;;16.59;100.00;100104.97;5205917;27;20008;-70
2024/04/09 00:17:44;;;;;;;8.55;3.58;;;16.20;99.90;;;16.61;100.00;100113.75;5205845;27;20035;-71
2024/04/09 00:20:18;;;;;;;7.60;3.72;;;16.20;99.90;;;16.61;100.00;100130.66;5205951;27;20349;-69
2024/04/09 00:22:45;;;;;;;6.75;3.47;;;16.20;99.90;;;16.58;100.00;100127.25;5205875;27;20096;-70
2024/04/09 00:25:18;;;;;;;6.32;3.38;;;16.20;99.90;;;16.49;100.00;100119.63;5207604;27;20015;-70
2024/04/09 00:27:47;;;;;;;7.05;3.30;;;16.20;99.90;;;15.96;100.00;100020.31;5207509;27;20008;-70
2024/04/09 00:30:18;;;;;;;4.03;3.30;;;16.20;99.90;;;16.66;100.00;100143.81;5207573;27;20007;-70
2024/04/09 00:32:48;;;;;;;5.45;3.78;;;16.20;99.90;;;16.51;100.00;100121.28;5207312;27;20062;-70
2024/04/09 00:35:21;;;;;;;8.68;3.72;;;16.30;99.90;;;16.65;100.00;100150.06;5205164;27;20008;-70
2024/04/09 00:37:51;;;;;;;8.38;4.07;;;16.30;99.90;;;16.63;100.00;100138.59;5205700;27;20022;-70
2024/04/09 00:40:24;;;;;;;5.07;3.35;;;16.30;99.90;;;16.73;100.00;100146.19;5207338;27;20409;-70
2024/04/09 00:42:53;;;;;;;5.53;3.95;;;16.30;99.90;;;15.89;100.00;100006.34;5207119;27;20354;-69
2024/04/09 00:45:24;;;;;;;5.97;3.53;;;16.30;99.90;;;16.67;100.00;100158.91;5207183;27;20019;-69
2024/04/09 00:47:53;;;;;;;7.97;4.25;;;16.30;99.90;;;16.58;100.00;100161.94;5205506;27;20087;-69
2024/04/09 00:50:25;;;;;;;8.27;4.40;;;16.20;99.90;;;16.53;100.00;100163.94;5207076;27;20027;-69
2024/04/09 00:52:55;;;;;;;6.95;4.30;;;16.10;99.90;;;16.59;100.00;100161.03;5207245;27;20461;-70
2024/04/09 00:55:28;;;;;;;11.32;4.20;;;16.20;99.90;;;16.40;100.00;100134.16;5205162;27;20129;-70
2024/04/09 00:57:56;;;;;;;6.65;3.85;;;16.20;99.90;;;16.56;100.00;100167.34;5207087;27;20481;-70
2024/04/09 01:00:27;;;;;;;4.00;3.60;;;16.10;99.90;;;16.50;100.00;100162.25;5205202;27;20090;-70
2024/04/09 01:02:55;;;;;;;6.10;3.65;;;16.10;99.90;;;16.51;100.00;100176.50;5206922;27;20658;-70
2024/04/09 01:05:30;;;;;;;6.50;4.03;;;16.10;99.90;;;16.42;100.00;100183.00;5207013;27;20007;-69
2024/04/09 01:07:57;;;;;;;6.18;3.58;;;16.00;99.90;;;16.41;100.00;100181.28;5206893;27;20347;-69
2024/04/09 01:10:30;;;;;;;7.13;4.13;;;16.00;99.90;;;16.41;100.00;100191.97;5206851;27;20023;-70
2024/04/09 01:12:58;;;;;;;5.45;3.63;;;16.00;99.90;;;16.23;100.00;100192.66;5206766;27;20018;-69
2024/04/09 01:15:29;;;;;;;7.28;3.67;;;16.00;99.90;;;16.19;100.00;100189.25;5206757;27;20083;-69
2024/04/09 01:17:58;;;;;;;4.93;3.90;;;15.90;99.90;;;16.32;100.00;100235.00;5206766;27;20086;-69
2024/04/09 01:20:28;;;;;;;6.00;4.20;;;15.90;99.90;;;16.32;100.00;100212.81;5206707;27;20015;-69
2024/04/09 01:22:58;;;;;;;9.77;3.85;;;15.90;99.90;;;16.16;100.00;100209.84;5206960;27;20559;-70
2024/04/09 01:25:28;;;;;;;8.18;3.97;;;15.80;99.90;;;15.98;100.00;100187.38;5206587;27;20004;-69
2024/04/09 01:27:56;;;;;;;5.90;3.83;;;15.70;99.90;;;16.04;100.00;100197.84;5206479;27;20014;-69
2024/04/09 01:30:26;;;;;;;8.32;3.78;;;15.70;99.90;;;16.05;99.88;100180.00;5206609;27;20024;-69
2024/04/09 01:32:54;;;;;;;9.35;3.72;;;15.70;99.90;;;16.05;99.39;100164.00;5206568;27;20023;-69
2024/04/09 01:35:24;;;;;;;9.07;3.85;;;15.60;99.90;;;16.00;99.29;100166.88;5206528;27;20023;-69
2024/04/09 01:37:52;;;;;;;9.70;3.83;;;15.60;99.90;;;15.99;99.26;100182.91;5206537;27;20393;-69
2024/04/09 01:40:25;;;;;;;8.52;4.30;;;15.60;99.90;;;15.94;98.42;100200.88;5206532;27;20012;-70
2024/04/09 01:42:52;;;;;;;12.65;5.05;;;15.60;99.90;;;15.93;98.92;100229.34;5206348;27;20007;-69
2024/04/09 01:45:22;;;;;;;11.32;4.20;;;15.50;99.90;;;15.82;98.71;100218.22;5204899;27;20008;-69
2024/04/09 01:47:51;;;;;;;13.55;4.93;;;15.50;99.90;;;15.72;98.70;100234.56;5209767;27;20043;-69
2024/04/09 01:50:21;;;;;;;10.10;4.30;;;15.30;99.90;;;15.70;98.52;100233.78;5207954;27;20007;-70
2024/04/09 01:52:48;;;;;;;9.88;4.40;;;15.30;99.90;;;15.71;98.70;100238.19;5209829;27;20487;-69
2024/04/09 01:55:19;;;;;;;8.88;4.50;;;15.30;99.90;;;15.65;99.58;100233.06;5209566;27;20353;-69
2024/04/09 01:57:50;;;;;;;13.98;4.57;;;15.20;99.90;;;15.46;99.94;100231.97;5207945;27;20755;-69
2024/04/09 02:00:22;;;;;;;9.82;4.55;;;15.10;99.90;;;15.49;100.00;100243.38;5209682;27;20091;-69
2024/04/09 02:02:52;;;;;;;14.65;5.05;;;15.10;99.90;;;15.58;100.00;100245.72;5209652;27;20008;-69
2024/04/09 02:05:23;;;;;;;9.25;4.65;;;15.10;99.90;;;15.51;100.00;100248.66;5207852;27;20406;-69
2024/04/09 02:07:50;;;;;;;14.57;5.05;;;15.10;99.90;;;15.38;99.84;100243.75;5209540;27;20047;-69
2024/04/09 02:10:20;;;;;;;9.82;4.72;;;15.00;99.90;;;15.38;99.91;100254.41;5207744;27;20012;-69
2024/04/09 02:12:51;;;;;;;10.23;4.50;;;15.00;99.90;;;15.22;99.06;100242.50;5209308;27;20338;-69
2024/04/09 02:15:22;;;;;;;10.77;4.55;;;15.00;99.90;;;15.34;98.94;100234.09;5209494;27;20007;-69
2024/04/09 02:17:50;;;;;;;10.00;4.70;;;14.90;99.90;;;15.29;98.41;100249.34;5209338;27;20030;-69
2024/04/09 02:20:20;;;;;;;11.60;4.80;;;14.90;99.90;;;15.30;98.13;100261.78;5209337;27;20349;-69
2024/04/09 02:22:47;;;;;;;12.00;4.60;;;14.90;99.90;;;15.01;97.86;100231.69;5209440;27;20466;-69
2024/04/09 02:25:18;;;;;;;10.93;4.70;;;14.80;99.90;;;15.29;98.29;100259.16;5207439;27;20040;-69
2024/04/09 02:27:46;;;;;;;12.63;5.00;;;14.90;99.90;;;15.37;98.18;100262.44;5207468;27;20047;-70
2024/04/09 02:30:19;;;;;;;13.48;5.35;;;14.90;99.90;;;15.13;97.82;100237.50;5209197;27;20019;-69
2024/04/09 02:32:47;;;;;;;12.07;5.25;;;14.90;99.90;;;15.13;96.98;100266.78;5209337;27;20485;-69
2024/04/09 02:35:19;;;;;;;13.48;4.60;;;14.80;99.90;;;15.07;97.31;100269.66;5209140;27;20012;-69
2024/04/09 02:37:47;;;;;;;17.48;4.97;;;14.70;99.90;;;14.97;97.82;100254.00;5208860;27;20008;-70
2024/04/09 02:40:17;;;;;;;16.70;5.35;;;14.70;99.90;;;15.20;97.23;100267.44;5209146;27;20019;-70
2024/04/09 02:42:46;;;;;;;15.30;5.05;;;14.80;99.90;;;15.04;96.38;100269.72;5209100;27;20027;-70
2024/04/09 02:45:20;;;;;;;16.75;4.90;;;14.70;99.90;;;15.14;96.45;100254.31;5207233;27;20026;-70
2024/04/09 02:47:48;;;;;;;12.30;4.60;;;14.80;99.90;;;15.15;95.75;100235.66;5209034;27;20008;-69
2024/04/09 02:50:20;;;;;;;15.45;4.80;;;14.70;99.90;;;15.26;94.76;100227.28;5208916;27;20004;-69
2024/04/09 02:52:49;;;;;;;18.52;5.20;;;14.90;99.90;;;15.16;94.01;100221.41;5207366;27;20663;-69
2024/04/09 02:55:20;;;;;;;14.50;5.30;;;14.80;99.90;;;15.19;93.66;100231.94;5208923;27;20082;-69
2024/04/09 02:57:48;;;;;;;15.82;5.38;;;14.80;99.90;;;15.11;93.27;100233.13;5206671;27;20007;-69
2024/04/09 03:00:22;;;;;;;15.25;5.60;;;14.80;99.90;;;15.00;91.83;100217.47;5208798;27;20015;-69
2024/04/09 03:02:51;;;;;;;14.70;4.97;;;14.70;99.90;;;15.00;91.65;100217.47;5209423;27;20007;-69
2024/04/09 03:05:24;;;;;;;12.60;4.85;;;14.80;99.90;;;15.06;90.95;100235.94;5208980;27;20485;-69
2024/04/09 03:07:53;;;;;;;14.85;4.95;;;14.70;99.90;;;15.05;90.41;100263.50;5208870;27;20007;-69
2024/04/09 03:10:23;;;;;;;10.90;4.35;;;14.70;99.90;;;15.08;90.73;100255.41;5206952;27;20382;-69
2024/04/09 03:12:50;;;;;;;17.65;5.53;;;14.70;99.90;;;15.09;90.74;100254.50;5206975;27;20008;-69
2024/04/09 03:15:24;;;;;;;13.30;5.22;;;14.70;99.90;;;14.52;90.72;100162.31;5206756;27;20348;-69
2024/04/09 03:17:52;;;;;;;15.30;4.93;;;14.70;99.90;;;14.94;91.35;100238.13;5208640;27;20706;-69
2024/04/09 03:20:22;;;;;;;15.07;5.47;;;14.70;99.90;;;15.15;91.51;100270.28;5206874;27;20458;-69
2024/04/09 03:22:51;;;;;;;14.00;4.78;;;14.70;99.90;;;15.16;91.58;100282.66;5208586;27;20086;-69
2024/04/09 03:25:21;;;;;;;13.98;5.03;;;14.80;99.90;;;15.19;91.26;100293.22;5208507;27;20024;-69
2024/04/09 03:27:48;;;;;;;19.40;4.93;;;14.80;99.90;;;15.21;90.86;100311.84;5206661;27;20433;-69
2024/04/09 03:30:18;;;;;;;16.05;4.70;;;14.80;99.90;;;15.14;91.18;100308.47;5208425;27;20357;-69
2024/04/09 03:32:51;;;;;;;24.45;5.60;;;14.80;99.90;;;15.00;90.68;100304.53;5208338;27;20007;-69
2024/04/09 03:35:21;;;;;;;14.32;5.50;;;14.70;99.90;;;15.01;90.74;100307.13;5208388;27;20019;-69
2024/04/09 03:37:51;;;;;;;21.17;5.72;;;14.70;99.90;;;15.06;90.77;100304.34;5208256;27;20007;-69
2024/04/09 03:40:21;;;;;;;13.95;4.97;;;14.70;99.90;;;14.52;90.58;100200.41;5208432;27;20469;-69
2024/04/09 03:42:51;;;;;;;12.73;5.32;;;14.70;99.90;;;15.12;90.87;100310.31;5207955;27;20018;-69
2024/04/09 03:45:19;;;;;;;13.23;5.45;;;14.70;99.90;;;15.04;90.63;100307.03;5208367;27;20091;-69
2024/04/09 03:47:53;;;;;;;15.68;5.70;;;14.70;99.90;;;14.95;90.72;100317.97;5208070;27;20477;-69
2024/04/09 03:50:20;;;;;;;17.40;4.55;;;14.60;99.90;;;14.92;90.93;100290.56;5208298;27;20008;-69
2024/04/09 03:52:54;;;;;;;16.65;5.28;;;14.60;99.90;;;15.14;91.08;100304.94;5208053;27;20008;-69
2024/04/09 03:55:22;;;;;;;17.95;5.68;;;14.70;99.90;;;15.14;90.79;100297.81;5208119;27;20367;-69
2024/04/09 03:57:52;;;;;;;10.73;5.07;;;14.70;99.90;;;15.14;90.56;100308.47;5206364;27;20008;-69
2024/04/09 04:00:20;;;;;;;;;;;14.70;99.90;;;15.12;90.61;100309.44;5208687;27;20402;-69
2024/04/09 04:02:54;;;;;;;12.18;4.97;;;14.70;99.90;;;14.96;90.48;100298.41;5207989;27;19934;-69
2024/04/09 04:05:21;;;;;;;17.85;5.65;;;14.70;99.90;;;14.87;90.12;100317.34;5206180;27;20004;-69
2024/04/09 04:07:51;;;;;;;14.48;5.00;;;14.60;99.90;;;15.01;90.20;100309.81;5205493;27;20019;-69
2024/04/09 04:10:19;;;;;;;15.50;5.97;;;14.70;99.90;;;14.88;90.08;100327.09;5207564;27;20007;-69
2024/04/09 04:12:49;;;;;;;16.75;5.07;;;14.50;99.90;;;14.95;90.48;100344.59;5207836;27;20451;-69
2024/04/09 04:15:16;;;;;;;15.88;5.50;;;14.50;99.90;;;15.08;90.64;100353.97;5207773;27;20008;-69
2024/04/09 04:17:47;;;;;;;13.43;5.43;;;14.70;99.90;;;15.06;90.65;100345.13;5207593;27;20016;-69
2024/04/09 04:20:17;;;;;;;14.38;5.07;;;14.70;99.90;;;15.10;90.92;100340.59;5207824;27;20089;-69
2024/04/09 04:22:47;;;;;;;15.25;4.90;;;14.70;99.90;;;14.93;90.46;100340.25;5207704;27;20038;-69
2024/04/09 04:25:14;;;;;;;11.75;4.93;;;14.60;99.90;;;14.81;90.82;100348.59;5207773;27;20088;-69
2024/04/09 04:27:46;;;;;;;14.00;5.35;;;14.50;99.90;;;14.93;90.88;100348.22;5207554;27;20007;-69
2024/04/09 04:30:14;;;;;;;16.35;5.10;;;14.50;99.90;;;14.78;91.21;100336.25;5207500;27;20008;-69
2024/04/09 04:32:44;;;;;;;21.10;6.47;;;14.50;99.90;;;14.81;91.58;100381.44;5207509;27;20083;-69
2024/04/09 04:35:12;;;;;;;16.35;5.15;;;14.50;99.90;;;14.83;91.66;100392.91;5207660;27;20470;-69
2024/04/09 04:37:45;;;;;;;13.50;4.75;;;14.50;99.90;;;14.71;91.68;100379.94;5207333;27;20007;-69
2024/04/09 04:40:12;;;;;;;15.00;5.45;;;14.30;99.90;;;14.75;91.54;100394.06;5205846;27;20063;-69
2024/04/09 04:42:43;;;;;;;10.07;4.85;;;14.40;99.90;;;13.78;91.35;100244.28;5207401;27;20015;-69
2024/04/09 04:45:10;;;;;;;12.70;5.20;;;14.30;99.90;;;14.31;89.69;100392.63;5207481;27;20019;-69
2024/04/09 04:47:40;;;;;;;15.20;4.93;;;14.00;99.90;;;14.26;89.92;100392.75;5207320;27;20020;-69
2024/04/09 04:50:08;;;;;;;9.45;4.63;;;13.90;99.90;;;13.74;89.61;100296.66;5207446;27;20007;-69
2024/04/09 04:52:38;;;;;;;10.80;4.68;;;13.90;99.90;;;14.36;90.04;100396.06;5207151;27;20004;-69
2024/04/09 04:55:09;;;;;;;14.15;5.35;;;14.00;99.90;;;14.19;89.73;100395.56;5207453;27;20008;-69
2024/04/09 04:57:39;;;;;;;;;;;13.90;99.90;;;14.13;89.62;100399.28;5207609;27;20092;-69
2024/04/09 05:00:09;;;;;;;11.63;4.60;;;13.80;99.90;;;14.13;89.36;100396.63;5207010;27;19932;-69
2024/04/09 05:02:40;;;;;;;10.23;4.68;;;13.80;99.90;;;14.15;89.60;100408.09;5207090;27;20004;-69
2024/04/09 05:05:08;;;;;;;18.23;4.80;;;13.80;99.90;;;14.13;89.33;100409.91;5207236;27;20023;-69
2024/04/09 05:07:38;;;;;;;12.82;4.88;;;13.80;99.90;;;14.09;89.58;100402.09;5206900;27;20012;-69
2024/04/09 05:10:12;;;;;;;12.35;4.93;;;13.80;99.90;;;14.11;88.73;100401.09;5206871;27;20013;-69
2024/04/09 05:12:44;;;;;;;11.52;4.50;;;13.70;99.90;;;13.83;88.25;100375.28;5205068;27;20383;-69
2024/04/09 05:15:12;;;;;;;12.57;4.60;;;13.70;99.90;;;13.84;88.58;100364.59;5206730;27;20016;-68
2024/04/09 05:17:44;;;;;;;11.35;4.70;;;13.70;99.90;;;14.07;88.22;100390.59;5206788;27;20067;-68
2024/04/09 05:20:14;;;;;;;11.93;4.65;;;13.70;99.90;;;13.97;88.22;100375.81;5208240;27;20011;-69
2024/04/09 05:22:47;;;;;;;10.52;4.88;;;13.70;99.90;;;14.10;88.47;100409.13;5208213;27;20008;-69
2024/04/09 05:25:18;;;;;;;15.35;4.40;;;13.80;99.90;;;14.13;88.18;100401.94;5209889;27;20031;-68
2024/04/09 05:27:49;;;;;;;10.25;4.45;;;13.80;99.90;;;13.67;88.30;100334.03;5209955;27;20008;-68
2024/04/09 05:30:17;;;;;;;10.38;4.68;;;13.80;99.90;;;14.13;88.21;100425.03;5210076;27;20409;-67
2024/04/09 05:32:47;;;;;;;13.27;4.93;;;13.80;99.90;;;14.08;88.32;100418.94;5209787;27;20007;-68
2024/04/09 05:35:15;;;;;;;12.38;4.80;;;13.70;99.90;;;14.07;88.50;100423.38;5210052;27;20079;-69
2024/04/09 05:37:45;;;;;;;11.68;5.80;;;13.80;99.90;;;14.17;88.86;100406.25;5209708;27;20022;-67
2024/04/09 05:40:13;;;;;;;9.60;5.32;;;13.80;99.90;;;14.14;88.92;100392.19;5209611;27;20007;-69
2024/04/09 05:42:46;;;;;;;11.40;4.60;;;13.90;99.90;;;14.24;89.23;100393.69;5209530;27;20477;-69
2024/04/09 05:45:18;;;;;;;13.00;5.85;;;13.90;99.90;;;14.23;89.55;100391.94;5209927;27;20090;-68
2024/04/09 05:47:50;;;;;;;12.50;5.20;;;13.90;99.90;;;14.11;90.01;100389.63;5209606;27;20022;-69
2024/04/09 05:50:18;;;;;;;13.52;5.18;;;13.90;99.90;;;14.10;90.16;100417.09;5209766;27;20044;-69
2024/04/09 05:52:49;;;;;;;10.05;4.75;;;13.80;99.90;;;13.94;89.11;100386.50;5210048;27;20012;-68
2024/04/09 05:55:17;;;;;;;16.90;5.45;;;13.70;99.90;;;13.82;89.31;100418.75;5207849;27;20410;-69
2024/04/09 05:57:50;;;;;;;9.27;4.70;;;13.50;99.90;;;13.78;88.95;100409.09;5209525;27;20030;-68
2024/04/09 06:00:20;;;;;;;13.63;4.97;;;13.50;99.90;;;13.76;89.26;100400.28;5209595;27;20026;-69
2024/04/09 06:02:50;;;;;;;11.80;4.75;;;13.40;99.90;;;13.88;89.89;100407.97;5209599;27;20349;-69
2024/04/09 06:05:18;;;;;;;12.65;5.05;;;13.50;99.90;;;13.86;89.18;100429.22;5207846;27;20019;-68
2024/04/09 06:07:48;;;;;;;15.38;4.70;;;13.50;99.90;;;13.70;88.93;100392.44;5209330;27;20379;-68
2024/04/09 06:10:18;;;;;;;8.82;4.50;;;13.50;99.90;;;13.80;88.63;100441.81;5207497;27;20020;-69
2024/04/09 06:12:51;;;;;;;7.88;4.65;;;13.50;99.90;;;13.63;87.42;100404.16;5209338;27;20470;-68
2024/04/09 06:15:19;;;;;;;11.30;5.15;;;13.40;99.90;;;13.81;87.27;100412.53;5208898;27;20019;-69
2024/04/09 06:17:49;;;;;;;9.25;4.65;;;13.50;99.90;;;13.88;87.02;100410.63;5209173;27;20023;-68
2024/04/09 06:20:17;;;;;;;10.68;4.72;;;13.50;99.90;;;13.17;86.29;100320.22;5209474;27;20011;-69
2024/04/09 06:22:48;;;;;;;11.07;4.47;;;13.50;99.90;;;13.53;84.05;100388.41;5209058;27;20019;-68
2024/04/09 06:25:16;;;;;;;8.25;4.43;;;13.30;99.90;;;13.34;81.10;100399.50;5209230;27;20007;-69
2024/04/09 06:27:46;;;;;;;10.27;4.32;;;13.10;99.90;;;13.26;80.81;100401.47;5207397;27;20083;-68
2024/04/09 06:30:17;;;;;;;9.50;4.18;;;13.00;99.90;;;13.21;80.63;100417.53;5209225;27;20660;-69
2024/04/09 06:32:47;;;;;;;9.50;4.32;;;12.90;99.90;;;13.31;80.89;100418.19;5206343;27;20011;-68
2024/04/09 06:35:15;;;;;;;10.63;4.45;;;13.00;99.90;;;13.30;81.14;100408.44;5209123;27;20060;-68
2024/04/09 06:37:45;;;;;;;8.77;4.80;;;13.00;99.90;;;13.13;79.97;100384.94;5208836;27;20012;-68
2024/04/09 06:40:13;;;;;;;11.15;4.97;;;13.00;99.90;;;13.27;79.97;100404.09;5207271;27;20008;-68
2024/04/09 06:42:43;;;;;;;23.58;5.32;;;13.00;99.90;;;13.34;79.93;100411.00;5208968;27;20012;-68
2024/04/09 06:45:10;;;;;;;12.40;4.38;;;13.00;99.90;;;13.43;80.01;100420.56;5207178;27;20022;-68
2024/04/09 06:47:43;;;;;;;12.70;4.55;;;13.10;99.90;;;13.40;79.87;100397.59;5208930;27;20084;-68
2024/04/09 06:50:11;;;;;;;12.05;4.55;;;13.10;99.90;;;13.38;80.09;100386.13;5208801;27;20454;-68
2024/04/09 06:52:41;;;;;;;12.48;4.80;;;13.10;99.90;;;13.41;79.85;100395.81;5208908;27;20349;-68
2024/04/09 06:55:09;;;;;;;8.98;4.18;;;13.10;99.90;;;13.40;80.13;100404.69;5209140;27;20007;-68
2024/04/09 06:57:40;;;;;;;9.15;4.28;;;13.10;99.90;;;12.60;79.69;100289.69;5206898;27;20008;-69
2024/04/09 07:00:09;;;;;;;9.93;4.97;;;13.00;99.90;;;13.45;79.64;100419.59;5208871;27;20466;-69
2024/04/09 07:02:39;;;;;;;10.70;5.03;;;13.10;99.90;;;13.25;78.02;100437.78;5208663;27;20016;-68
2024/04/09 07:05:11;;;;;;;9.25;4.47;;;13.00;99.90;;;13.14;78.46;100433.63;5207062;27;20453;-69
2024/04/09 07:07:39;;;;;;;8.55;4.50;;;12.90;99.90;;;13.04;78.96;100446.22;5208381;27;20023;-68
2024/04/09 07:10:11;;;;;;;12.15;4.30;;;12.80;99.90;;;12.87;78.98;100413.81;5208055;27;20489;-68
2024/04/09 07:12:38;;;;;;;9.57;4.07;;;12.80;99.90;;;12.94;78.68;100430.47;5208553;27;20035;-68
2024/04/09 07:15:10;;;;;;;11.45;3.95;;;12.70;99.90;;;12.77;76.11;100441.47;5208534;27;20066;-69
2024/04/09 07:17:40;;;;;;;8.57;3.90;;;12.60;99.90;;;12.80;75.58;100443.16;5208655;27;20357;-69
2024/04/09 07:20:13;;;;;;;6.38;3.40;;;12.50;99.90;;;12.72;74.00;100467.19;5208580;27;20040;-68
2024/04/09 07:22:40;;;;;;;8.13;4.50;;;12.40;99.90;;;12.54;72.68;100441.03;5208491;27;20023;-68
2024/04/09 07:25:12;;;;;;;10.20;4.55;;;12.30;99.90;;;12.53;72.91;100465.78;5208529;27;20019;-68
2024/04/09 07:27:40;;;;;;;7.25;3.67;;;12.20;99.90;;;12.24;71.99;100453.06;5208429;27;20019;-68
2024/04/09 07:30:12;;;;;;;7.18;3.90;;;12.20;99.90;;;12.49;73.04;100443.75;5208346;27;20022;-68
2024/04/09 07:32:40;;;;;;;6.18;3.72;;;12.20;99.90;;;12.70;74.26;100487.56;5208337;27;20039;-68
2024/04/09 07:35:14;;;;;;;8.35;4.60;;;12.40;99.90;;;12.49;72.43;100461.44;5208326;27;20008;-68
2024/04/09 07:37:41;;;;;;;8.52;3.58;;;12.30;99.90;;;12.38;72.45;100469.63;5208637;27;20552;-68
2024/04/09 07:40:11;;;;;;;7.45;4.25;;;12.10;99.90;;;12.39;72.73;100442.19;5208101;27;20339;-68
2024/04/09 07:42:39;;;;;;;9.35;3.85;;;12.10;99.90;;;12.24;73.05;100450.44;5208175;27;20461;-68
2024/04/09 07:45:10;;;;;;;7.10;3.38;;;12.00;99.90;;;12.47;74.16;100503.94;5208279;27;20016;-68
2024/04/09 07:47:37;;;;;;;;;;;12.10;99.90;;;12.47;72.84;100500.38;5208860;27;20020;-68
2024/04/09 07:50:11;;;;;;;9.43;4.13;;;12.20;99.90;;;12.48;73.45;100494.19;5208254;27;19932;-68
2024/04/09 07:52:42;;;;;;;7.07;3.90;;;12.20;99.90;;;12.35;71.87;100455.56;5207991;27;20015;-68
2024/04/09 07:55:13;;;;;;;9.95;3.78;;;12.20;99.90;;;12.38;72.87;100468.75;5208044;27;20011;-68
2024/04/09 07:57:42;;;;;;;7.45;4.03;;;12.10;99.90;;;12.46;73.32;100485.41;5208088;27;20018;-68
2024/04/09 08:00:17;;;;;;;7.80;4.05;;;12.20;99.90;;;12.55;73.64;100501.13;5208195;27;20370;-68
2024/04/09 08:02:45;;;;;;;6.15;3.83;;;12.30;99.90;;;12.49;72.40;100493.28;5206283;27;20086;-68
2024/04/09 08:05:16;;;;;;;9.23;3.80;;;12.20;99.90;;;12.51;72.44;100557.81;5206012;27;20047;-68
2024/04/09 08:07:47;;;;;;;5.85;3.95;;;12.20;99.90;;;12.57;73.35;100488.72;5206105;27;20383;-68
2024/04/09 08:10:19;;;;;;;8.98;4.20;;;12.30;99.90;;;12.56;73.38;100465.75;5207922;27;20015;-68
2024/04/09 08:12:49;;;;;;;9.05;3.90;;;12.30;99.90;;;12.62;74.82;100524.88;5207863;27;20008;-68
2024/04/09 08:15:21;;;;;;;6.47;3.90;;;12.40;99.90;;;12.88;74.26;100511.13;5207823;27;20019;-69
2024/04/09 08:17:49;;;;;;;8.32;4.30;;;12.60;99.90;;;12.99;72.69;100517.06;5207760;27;20008;-68
2024/04/09 08:20:20;;;;;;;7.70;4.03;;;12.70;99.90;;;13.18;73.65;100510.53;5207631;27;20086;-69
2024/04/09 08:22:51;;;;;;;8.00;3.80;;;12.90;99.90;;;13.00;71.96;100558.66;5208145;27;20011;-69
2024/04/09 08:25:23;;;;;;;10.05;4.18;;;12.80;99.90;;;12.77;71.87;100481.25;5205740;27;20031;-68
2024/04/09 08:27:51;;;;;;;8.75;3.97;;;12.70;99.90;;;12.82;71.76;100523.63;5207763;27;20454;-68
2024/04/09 08:30:23;;;;;;;7.82;4.07;;;12.60;99.90;;;12.77;72.70;100507.81;5207395;27;20453;-68
2024/04/09 08:32:51;;;;;;;7.53;3.75;;;12.50;99.90;;;12.86;73.81;100509.38;5207549;27;20008;-68
2024/04/09 08:35:22;;;;;;;9.70;4.10;;;12.60;99.90;;;12.90;74.08;100501.34;5207332;27;20064;-68
2024/04/09 08:37:52;;;;;;;8.23;3.70;;;12.60;99.90;;;12.73;73.90;100513.19;5207480;27;20474;-68
2024/04/09 08:40:24;;;;;;;7.53;3.90;;;12.50;99.90;;;12.67;74.08;100524.78;5207389;27;20007;-68
2024/04/09 08:42:59;;;;;;;8.80;4.05;;;12.40;99.90;;;12.70;74.18;100535.34;5207511;27;20307;-68
2024/04/09 08:45:32;;;;;;;8.65;4.10;;;12.50;99.90;;;12.58;74.14;100532.94;5207401;27;20130;-68
2024/04/09 08:48:03;;;;;;;10.07;4.15;;;12.40;99.90;;;12.37;74.39;100509.41;5207378;27;20056;-68
2024/04/09 08:50:34;;;;;;;;;;;12.30;99.90;;;12.51;74.65;100526.84;5207905;27;20026;-69
2024/04/09 08:53:05;;;;;;;7.57;3.42;;;12.30;99.90;;;12.57;75.34;100555.94;5207220;27;19976;-69
2024/04/09 08:55:38;;;;;;;;;;;12.30;99.90;;;11.76;74.94;100401.81;5209658;27;20480;-69
2024/04/09 08:58:09;;;;;;;8.63;4.15;;;12.30;99.90;;;12.48;75.02;100552.56;5210835;27;19928;-69
2024/04/09 09:00:39;;;;;;;7.78;4.13;;;12.30;99.90;;;12.41;74.95;100546.47;5208397;27;20008;-68
2024/04/09 09:03:07;;;;;;;9.68;3.70;;;12.20;99.90;;;12.45;75.31;100542.88;5208673;27;20011;-69
2024/04/09 09:05:38;;;;;;;6.22;3.67;;;12.20;99.90;;;12.32;74.62;100562.56;5210193;27;20019;-69
2024/04/09 09:08:09;;;;;;;10.32;4.28;;;12.10;99.90;;;12.28;74.68;100571.47;5210303;27;20091;-68
2024/04/09 09:10:39;;;;;;;10.77;4.63;;;12.10;99.90;;;12.33;75.42;100550.19;5209989;27;20008;-69
2024/04/09 09:13:07;;;;;;;9.15;3.90;;;12.00;99.90;;;12.38;75.17;100548.31;5208502;27;20008;-68
2024/04/09 09:15:37;;;;;;;8.02;3.72;;;12.10;99.90;;;12.48;75.25;100553.44;5210166;27;20008;-68
2024/04/09 09:18:05;;;;;;;8.32;3.60;;;12.20;99.90;;;11.76;74.94;100444.19;5210163;27;20008;-68
2024/04/09 09:20:35;;;;;;;7.85;3.90;;;12.20;99.90;;;12.41;75.15;100574.78;5209982;27;20008;-69
2024/04/09 09:23:03;;;;;;;7.05;3.58;;;12.20;99.90;;;12.51;75.59;100533.94;5210135;27;20019;-68
2024/04/09 09:25:36;;;;;;;8.27;3.80;;;12.20;99.90;;;12.54;76.46;100528.59;5209987;27;20012;-68
2024/04/09 09:28:07;;;;;;;7.55;4.10;;;12.30;99.90;;;12.64;76.28;100543.41;5208188;27;20008;-68
2024/04/09 09:30:42;;;;;;;9.05;4.07;;;12.40;99.90;;;12.59;74.71;100542.63;5208092;27;20347;-67
2024/04/09 09:33:18;;;;;;;11.02;4.65;;;12.30;99.90;;;12.66;75.66;100570.78;5210022;27;20515;-68
2024/04/09 09:35:51;;;;;;;8.02;3.83;;;12.40;99.90;;;12.54;75.68;100531.25;5210005;27;20473;-67
2024/04/09 09:38:20;;;;;;;6.35;4.10;;;12.30;99.90;;;12.44;75.65;100595.94;5208097;27;20022;-68
2024/04/09 09:40:57;;;;;;;7.22;4.30;;;12.30;99.90;;;12.53;76.12;100540.09;5207948;27;20633;-68
2024/04/09 09:43:26;;;;;;;7.30;3.60;;;12.30;99.90;;;12.64;76.00;100597.34;5209760;27;20646;-68
2024/04/09 09:45:57;;;;;;;8.15;4.40;;;12.30;99.90;;;12.64;75.58;100535.44;5209747;27;20472;-67
2024/04/09 09:48:25;;;;;;;6.82;3.75;;;12.40;99.90;;;12.72;76.22;100552.13;5209617;27;20055;-68
2024/04/09 09:50:56;;;;;;;7.53;3.70;;;12.50;99.90;;;12.61;75.23;100530.22;5209659;27;20008;-67
2024/04/09 09:53:24;;;;;;;5.72;3.58;;;12.50;99.90;;;12.72;75.43;100557.41;5209614;27;20004;-68
2024/04/09 09:56:00;;;;;;;7.35;4.20;;;12.50;99.90;;;12.81;76.56;100549.31;5209696;27;20007;-68
2024/04/09 09:58:30;;;;;;;6.85;4.00;;;12.50;99.90;;;12.82;75.40;100566.97;5209557;27;20342;-68
2024/04/09 10:01:04;;;;;;;8.23;3.97;;;12.60;99.90;;;12.64;75.11;100522.19;5207917;27;20646;-68
2024/04/09 10:03:32;;;;;;;7.38;4.20;;;12.50;99.90;;;12.78;74.91;100618.34;5209228;27;20446;-69
2024/04/09 10:06:05;;;;;;;6.95;4.05;;;12.50;99.90;;;12.54;74.94;100491.44;5208348;27;20032;-69
2024/04/09 10:08:33;;;;;;;7.95;3.95;;;12.50;99.90;;;12.81;74.75;100535.16;5209410;27;20012;-69
2024/04/09 10:11:06;;;;;;;12.30;4.00;;;12.50;99.90;;;12.76;75.44;100527.28;5207768;27;20026;-69
2024/04/09 10:13:34;;;;;;;7.72;3.50;;;12.70;99.90;;;12.81;74.50;100573.19;5209393;27;20008;-68
2024/04/09 10:16:06;;;;;;;5.00;3.60;;;12.60;99.90;;;12.79;74.75;100540.50;5209394;27;20035;-68
2024/04/09 10:18:37;;;;;;;8.20;3.70;;;12.60;99.90;;;12.81;74.51;100546.66;5209369;27;20773;-68
2024/04/09 10:21:11;;;;;;;8.88;4.38;;;12.50;99.90;;;12.00;74.71;100434.09;5209174;27;20063;-68